Latest Coastal Weather Observations for Kalumburu

IDW60701

Issued at 8:05 pm WST Thursday 27 November 2014 (issued every 10 minutes, with the page automatically refreshed every 10 minutes)

About coastal observations | Map of coastal stations | Coastal observations for WA | Marine services | Other Formats
Station Details ID: 001019 Name: KALUMBURU Lat: -14.30 Lon: 126.65 Height: 23.0 m
Data from the previous 72 hours. | See also: Recent months at Kalumburu
Date/Time
WST
Temp

°C
Wind Pressure Rain
since 9am
mm
Weather Cloud Vis
km
Sea
Height
m
Swell
Dir
 
Speed
knots
Gust
knots
hPa Trend Height
m
Period
s
Dir
27/08:00pm 24.8 CALM 0 3 1009.8 - 24.2 - - - - - - -
27/07:30pm 24.7 SSE 3 4 1009.3 - 24.2 - - - - - - -
27/07:00pm 25.1 SSE 2 6 1009.0 - 24.2 - - - - - - -
27/06:30pm 25.2 SSE 4 6 1008.8 - 24.2 - - - - - - -
27/06:00pm 25.3 S 5 8 1008.2 - 24.2 - - - - - - -
27/05:30pm 25.6 SSE 4 6 1007.3 - 24.2 - - - - - - -
27/05:00pm 26.3 S 5 8 1007.3 - 24.2 - - - - - - -
27/04:30pm 27.1 S 3 5 1007.1 - 24.2 - - - - - - -
27/04:00pm 27.2 S 2 4 1007.0 - 24.2 - - - - - - -
27/03:30pm 26.2 SSE 2 3 1006.9 - 24.2 - - - - - - -
27/03:00pm 25.7 SSW 4 6 1007.4 - 24.2 - - - - - - -
27/02:30pm 25.3 SSE 2 3 1007.5 - 24.2 - - - - - - -
27/02:00pm 25.3 NNW 4 6 1008.1 - 24.2 - - - - - - -
27/01:30pm 23.9 ESE 6 11 1008.5 - 24.2 - - - - - - -
27/01:00pm 24.6 E 10 19 1009.7 - 21.8 - - - - - - -
27/12:30pm 25.2 ENE 8 12 1009.4 - 21.8 - - - - - - -
27/12:00pm 23.9 ENE 5 7 1009.6 - 17.4 Rain - - - - - -
27/11:49am 23.8 NE 15 25 1009.4 - 10.8 - - - - - - -
27/11:30am 27.6 NE 15 23 1008.8 - 0.0 - - - - - - -
27/11:21am 29.4 NNE 13 21 1008.5 - 0.0 - - - - - - -
27/11:00am 34.6 WNW 6 8 1008.1 - 0.0 - - - - - - -
27/10:30am 33.3 NNW 5 9 1008.7 - 0.0 - - - - - - -
27/10:00am 33.2 ENE 4 7 1009.0 - 0.0 - - - - - - -
27/09:30am 32.8 NE 4 7 1009.3 - 0.0 - - - - - - -
27/09:00am 32.4 N 5 7 1009.8 - 2.4 - - - - - - -
27/08:30am 31.4 N 3 5 1009.9 - 2.4 - - - - - - -
27/08:00am 30.3 WNW 3 5 1009.9 - 2.4 - - - - - - -
27/07:30am 29.7 WSW 3 5 1009.6 - 2.4 - - - - - - -
27/07:00am 29.0 SSE 1 4 1009.4 - 2.4 - - - - - - -
27/06:30am 28.2 S 2 6 1009.2 - 2.4 - - - - - - -
27/06:00am 27.1 S 3 5 1008.9 - 2.4 - - - - - - -
27/05:30am 25.7 CALM 0 0 1008.6 - 2.4 - - - - - - -
27/05:00am 24.9 CALM 0 0 1007.9 - 2.4 - - - - - - -
27/04:30am 25.5 SSW 3 4 1007.7 - 2.2 - - - - - - -
27/04:00am 25.5 SSW 3 4 1007.3 - 2.2 - - - - - - -
27/03:30am 25.5 S 3 4 1007.2 - 2.2 - - - - - - -
27/03:00am 25.4 SE 3 4 1007.2 - 2.2 - - - - - - -
27/02:30am 25.6 CALM 0 0 1007.0 - 2.2 - - - - - - -
27/02:00am 25.6 CALM 0 0 1007.2 - 2.2 - - - - - - -
27/01:30am 25.7 CALM 0 0 1007.0 - 2.2 - - - - - - -
27/01:00am 26.3 SW 4 4 1007.1 - 2.2 - - - - - - -
27/12:30am 25.8 SSE 3 4 1007.4 - 2.2 - - - - - - -
27/12:00am 25.9 ENE 2 4 1007.3 - 2.2 - - - - - - -
 
Date/Time
WST
Temp

°C
Wind Pressure Rain
since 9am
mm
Weather Cloud Vis
km
Sea
Height
m
Swell
Dir
 
Speed
knots
Gust
knots
hPa Trend Height
m
Period
s
Dir
26/11:30pm 26.0 CALM 0 0 1007.6 - 2.2 - - - - - - -
26/11:00pm 26.0 CALM 0 0 1007.8 - 2.2 - - - - - - -
26/10:30pm 26.3 CALM 0 0 1008.0 - 2.2 - - - - - - -
26/10:00pm 26.9 N 3 4 1008.1 - 2.2 - - - - - - -
26/09:30pm 26.4 CALM 0 0 1008.5 - 2.2 - - - - - - -
26/09:00pm 26.7 N 1 3 1008.3 - 2.2 - - - - - - -
26/08:30pm 27.2 N 3 5 1008.2 - 2.2 - - - - - - -
26/08:00pm 26.9 CALM 0 0 1008.1 - 2.2 - - - - - - -
26/07:30pm 26.8 SSE 3 4 1007.7 - 2.2 - - - - - - -
26/07:00pm 26.9 CALM 0 0 1007.2 - 2.2 - - - - - - -
26/06:30pm 26.6 SSW 2 5 1006.9 - 2.2 - - - - - - -
26/06:00pm 26.5 CALM 0 0 1006.2 - 2.2 Recent precip. - - - - - -
26/05:30pm 26.4 E 4 6 1006.0 - 2.2 - - - - - - -
26/05:00pm 26.6 SE 4 7 1006.0 - 2.0 - - - - - - -
26/04:30pm 29.0 SW 5 11 1005.8 - 0.0 - - - - - - -
26/04:00pm 31.6 NNW 9 15 1005.2 - 0.0 - - - - - - -
26/03:30pm 32.0 NNW 9 15 1005.1 - 0.0 - - - - - - -
26/03:00pm 32.5 NNW 9 14 1004.8 - 0.0 - - - - - - -
26/02:30pm 32.2 NNW 9 14 1004.8 - 0.0 - - - - - - -
26/02:00pm 32.6 NNW 9 15 1004.9 - 0.0 - - - - - - -
26/01:30pm 32.0 N 9 14 1005.4 - 0.0 - - - - - - -
26/01:00pm 32.9 N 8 11 1006.0 - 0.0 - - - - - - -
26/12:30pm 33.0 N 9 13 1006.2 - 0.0 - - - - - - -
26/12:00pm 32.9 N 6 11 1006.4 - 0.0 - - - - - - -
26/11:30am 32.3 N 6 11 1006.5 - 0.0 - - - - - - -
26/11:00am 32.7 N 6 8 1006.8 - 0.0 - - - - - - -
26/10:30am 32.3 WNW 3 5 1007.4 - 0.0 - - - - - - -
26/10:00am 32.2 CALM 0 0 1007.6 - 0.0 - - - - - - -
26/09:30am 31.6 SE 2 5 1008.0 - 0.0 - - - - - - -
26/09:00am 30.7 ESE 5 10 1008.5 - 17.0 - - - - - - -
26/08:30am 29.6 SSE 5 9 1009.0 - 17.0 - - - - - - -
26/08:00am 28.9 SE 7 12 1009.1 - 17.0 - - - - - - -
26/07:30am 28.9 SSE 10 16 1009.0 - 17.0 - - - - - - -
26/07:00am 28.7 SSE 8 15 1009.0 - 17.0 - - - - - - -
26/06:30am 27.8 SE 8 15 1009.1 - 17.0 - - - - - - -
26/06:00am 27.2 S 4 6 1008.9 - 17.0 - - - - - - -
26/05:30am 25.9 SSE 1 4 1008.3 - 17.0 - - - - - - -
26/05:00am 25.8 CALM 0 0 1007.7 - 17.0 - - - - - - -
26/04:30am 26.1 SE 1 5 1007.8 - 17.0 - - - - - - -
26/04:00am 26.6 SE 4 6 1007.8 - 17.0 - - - - - - -
26/03:30am 26.9 E 5 10 1007.3 - 17.0 - - - - - - -
26/03:00am 26.5 ESE 7 11 1007.1 - 17.0 - - - - - - -
26/02:30am 25.7 ESE 4 5 1006.6 - 17.0 - - - - - - -
26/02:00am 26.1 E 3 5 1005.7 - 17.0 - - - - - - -
26/01:30am 26.1 SE 2 4 1005.7 - 17.0 - - - - - - -
26/01:00am 26.4 E 1 3 1005.6 - 17.0 - - - - - - -
26/12:30am 26.6 SE 3 4 1005.9 - 17.0 - - - - - - -
26/12:00am 26.8 S 4 6 1006.1 - 17.0 - - - - - - -
 
Date/Time
WST
Temp

°C
Wind Pressure Rain
since 9am
mm
Weather Cloud Vis
km
Sea
Height
m
Swell
Dir
 
Speed
knots
Gust
knots
hPa Trend Height
m
Period
s
Dir
25/11:30pm 26.7 CALM 0 0 1006.5 - 17.0 - - - - - - -
25/11:00pm 26.7 SSE 3 5 1007.2 - 17.0 - - - - - - -
25/10:30pm 26.6 SSE 2 3 1007.3 - 17.0 - - - - - - -
25/10:00pm 26.5 SSW 3 4 1007.6 - 17.0 - - - - - - -
25/09:30pm 26.6 CALM 0 0 1007.1 - 17.0 - - - - - - -
25/09:00pm 26.8 CALM 0 0 1007.1 - 17.0 - - - - - - -
25/08:30pm 26.9 SW 2 4 1006.9 - 17.0 - - - - - - -
25/08:00pm 26.9 N 2 3 1006.5 - 17.0 - - - - - - -
25/07:30pm 27.6 N 5 6 1006.4 - 17.0 - - - - - - -
25/07:00pm 27.5 NW 5 7 1006.2 - 17.0 - - - - - - -
25/06:30pm 26.7 CALM 0 0 1007.1 - 17.0 - - - - - - -
25/06:00pm 26.8 N 1 3 1006.4 - 17.0 - - - - - - -
25/05:30pm 27.0 SSE 5 8 1007.1 - 17.0 - - - - - - -
25/05:00pm 27.0 S 7 11 1007.6 - 17.0 - - - - - - -
25/04:30pm 26.6 SSW 3 4 1007.0 - 17.0 - - - - - - -
25/04:00pm 26.6 NE 4 6 1006.3 - 17.0 - - - - - - -
25/03:30pm 26.3 N 10 12 1006.1 - 17.0 - - - - - - -
25/03:00pm 25.0 NE 6 10 1005.2 - 16.8 Rain - - - - - -
25/02:30pm 26.5 ENE 11 19 1007.0 - 4.2 - - - - - - -
25/02:00pm 30.4 NNE 7 9 1005.4 - 0.0 - - - - - - -
25/01:30pm 31.7 N 13 19 1005.2 - 0.0 - - - - - - -
25/01:00pm 35.8 WSW 7 15 1005.2 - 0.0 - - - - - - -
25/12:30pm 37.2 S 5 11 1005.3 - 0.0 - - - - - - -
25/12:00pm 37.9 S 5 8 1006.1 - 0.0 - - - - - - -
25/11:30am 37.2 S 6 8 1006.7 - 0.0 - - - - - - -
25/11:00am 37.5 S 7 11 1007.4 - 0.0 - - - - - - -
25/10:30am 37.0 SSE 6 9 1007.9 - 0.0 - - - - - - -
25/10:00am 35.8 SSW 5 9 1008.3 - 0.0 - - - - - - -
25/09:30am 35.4 SSW 3 7 1008.8 - 0.0 - - - - - - -
25/09:00am 34.4 SSW 5 11 1009.0 - 0.0 - - - - - - -
25/08:30am 33.0 SW 5 9 1009.3 - 0.0 - - - - - - -
25/08:00am 31.9 S 6 8 1009.3 - 0.0 - - - - - - -
25/07:30am 31.1 SW 5 9 1009.3 - 0.0 - - - - - - -
25/07:00am 29.9 SSE 1 3 1009.2 - 0.0 - - - - - - -
25/06:30am 28.8 CALM 0 0 1009.2 - 0.0 - - - - - - -
25/06:00am 27.8 CALM 0 0 1008.6 - 0.0 - - - - - - -
25/05:30am 27.1 CALM 0 0 1008.3 - 0.0 - - - - - - -
25/05:00am 26.9 CALM 0 0 1007.8 - 0.0 - - - - - - -
25/04:30am 26.5 CALM 0 0 1007.7 - 0.0 - - - - - - -
25/04:00am 27.5 W 3 4 1007.4 - 0.0 - - - - - - -
25/03:30am 27.8 NW 1 4 1007.3 - 0.0 - - - - - - -
25/03:00am 27.8 W 1 5 1007.6 - 0.0 - - - - - - -
25/02:30am 28.1 NNW 3 6 1007.6 - 0.0 - - - - - - -
25/02:00am 28.2 CALM 0 0 1007.6 - 0.0 - - - - - - -
25/01:30am 28.8 N 5 6 1007.6 - 0.0 - - - - - - -
25/01:00am 28.8 N 5 7 1007.8 - 0.0 - - - - - - -
25/12:30am 29.0 N 6 8 1008.1 - 0.0 - - - - - - -
25/12:00am 29.1 N 5 8 1008.6 - 0.0 - - - - - - -
 
Date/Time
WST
Temp

°C
Wind Pressure Rain
since 9am
mm
Weather Cloud Vis
km
Sea
Height
m
Swell
Dir
 
Speed
knots
Gust
knots
hPa Trend Height
m
Period
s
Dir
24/11:30pm 29.4 NW 5 7 1008.9 - 0.0 - - - - - - -
24/11:00pm 29.6 NW 6 8 1009.3 - 0.0 - - - - - - -
24/10:30pm 29.7 NW 5 7 1009.5 - 0.0 - - - - - - -
24/10:00pm 29.9 NNW 7 9 1009.5 - 0.0 - - - - - - -
24/09:30pm 30.1 NNW 6 8 1009.6 - 0.0 - - - - - - -
24/09:00pm 30.2 N 5 7 1009.5 - 0.0 - - - - - - -
24/08:30pm 30.6 N 6 8 1009.0 - 0.0 - - - - - - -

Other Formats:

Comma delimited format used in spreadsheet applications
http://www.bom.gov.au/fwo/IDW60701/IDW60701.94100.axf

JavaScript Object Notation format (JSON) in row-major order
http://www.bom.gov.au/fwo/IDW60701/IDW60701.94100.json